createdAt,value
2023-01-03T00:31:01.000Z,1.0
2023-01-03T00:33:48.000Z,1.0
2023-01-03T01:06:28.000Z,1.0
2023-01-03T01:07:19.000Z,0.0
2023-01-03T01:08:42.000Z,0.0
2023-01-03T01:09:03.000Z,0.0
2023-01-03T01:09:24.000Z,0.0
2023-01-03T01:10:16.000Z,0.0
2023-01-03T01:12:54.000Z,0.0
2023-01-03T01:46:21.000Z,0.0
2023-01-03T02:16:25.000Z,0.0
2023-01-03T02:46:26.000Z,0.0
2023-01-03T03:16:36.000Z,0.0
2023-01-03T03:46:38.000Z,0.0
2023-01-03T04:16:39.000Z,0.0
2023-01-03T04:46:41.000Z,1.0
2023-01-03T05:16:53.000Z,0.0
2023-01-03T05:47:02.000Z,0.0
2023-01-03T06:17:03.000Z,0.0
2023-01-03T06:47:14.000Z,1.0
2023-01-03T07:17:15.000Z,3.0
2023-01-03T07:47:19.000Z,25.0
2023-01-03T08:17:22.000Z,42.0
2023-01-03T08:47:24.000Z,71.0
2023-01-03T09:17:27.000Z,89.0
2023-01-03T09:47:33.000Z,131.0
2023-01-03T10:17:37.000Z,103.0
2023-01-03T10:47:41.000Z,63.0
2023-01-03T11:17:42.000Z,43.0
2023-01-03T11:47:49.000Z,47.0
2023-01-03T12:17:53.000Z,44.0
2023-01-03T12:47:56.000Z,47.0
2023-01-03T13:18:01.000Z,40.0
2023-01-03T13:48:04.000Z,32.0
2023-01-03T14:18:05.000Z,28.0
2023-01-03T14:48:06.000Z,19.0
2023-01-03T15:18:08.000Z,13.0
2023-01-03T15:48:11.000Z,4.0
2023-01-03T16:18:16.000Z,1.0
2023-01-03T16:48:21.000Z,1.0
2023-01-03T17:18:27.000Z,2.0
2023-01-03T17:48:34.000Z,2.0
2023-01-03T18:18:45.000Z,2.0
2023-01-03T18:48:48.000Z,0.0
2023-01-03T19:18:50.000Z,1.0
2023-01-03T19:48:52.000Z,2.0
2023-01-03T20:18:53.000Z,1.0
2023-01-03T20:48:57.000Z,3.0
2023-01-03T21:19:03.000Z,1.0
2023-01-03T21:49:06.000Z,1.0
2023-01-03T22:19:12.000Z,0.0
2023-01-03T22:49:17.000Z,0.0
2023-01-03T23:19:20.646Z,1
2023-01-03T23:49:30.000Z,1.0
